sensor_id;sensor_type;location;lat;lon;timestamp;P1;durP1;ratioP1;P2;durP2;ratioP2
5157;SDS011;2598;52.364;9.772;2023-04-25T00:02:07;10.43;;;4.77;;
5157;SDS011;2598;52.364;9.772;2023-04-25T00:04:33;9.77;;;4.80;;
5157;SDS011;2598;52.364;9.772;2023-04-25T00:06:59;11.93;;;4.80;;
5157;SDS011;2598;52.364;9.772;2023-04-25T00:09:29;10.20;;;3.77;;
5157;SDS011;2598;52.364;9.772;2023-04-25T00:11:55;32.07;;;4.40;;
5157;SDS011;2598;52.364;9.772;2023-04-25T00:14:21;10.80;;;4.03;;
5157;SDS011;2598;52.364;9.772;2023-04-25T00:16:48;9.93;;;3.90;;
5157;SDS011;2598;52.364;9.772;2023-04-25T00:19:16;14.27;;;4.23;;
5157;SDS011;2598;52.364;9.772;2023-04-25T00:21:42;11.57;;;3.33;;
5157;SDS011;2598;52.364;9.772;2023-04-25T00:24:11;10.40;;;3.70;;
5157;SDS011;2598;52.364;9.772;2023-04-25T00:26:37;18.07;;;4.93;;
5157;SDS011;2598;52.364;9.772;2023-04-25T00:29:03;12.90;;;3.97;;
5157;SDS011;2598;52.364;9.772;2023-04-25T00:31:29;12.90;;;4.57;;
5157;SDS011;2598;52.364;9.772;2023-04-25T00:33:55;10.73;;;3.57;;
5157;SDS011;2598;52.364;9.772;2023-04-25T00:36:21;11.03;;;3.87;;
5157;SDS011;2598;52.364;9.772;2023-04-25T00:38:47;13.57;;;3.70;;
5157;SDS011;2598;52.364;9.772;2023-04-25T00:41:13;14.03;;;3.60;;
5157;SDS011;2598;52.364;9.772;2023-04-25T00:43:39;10.53;;;3.53;;
5157;SDS011;2598;52.364;9.772;2023-04-25T00:46:05;10.53;;;3.90;;
5157;SDS011;2598;52.364;9.772;2023-04-25T00:48:31;14.00;;;3.57;;
5157;SDS011;2598;52.364;9.772;2023-04-25T00:50:58;14.53;;;4.03;;
5157;SDS011;2598;52.364;9.772;2023-04-25T00:53:25;12.37;;;4.47;;
5157;SDS011;2598;52.364;9.772;2023-04-25T00:55:51;16.90;;;3.80;;
5157;SDS011;2598;52.364;9.772;2023-04-25T00:58:18;13.10;;;4.37;;
5157;SDS011;2598;52.364;9.772;2023-04-25T01:00:45;11.20;;;4.13;;
5157;SDS011;2598;52.364;9.772;2023-04-25T01:03:11;15.17;;;3.87;;
5157;SDS011;2598;52.364;9.772;2023-04-25T01:05:37;12.17;;;4.10;;
5157;SDS011;2598;52.364;9.772;2023-04-25T01:08:03;14.43;;;4.77;;
5157;SDS011;2598;52.364;9.772;2023-04-25T01:10:30;13.07;;;4.43;;
5157;SDS011;2598;52.364;9.772;2023-04-25T01:12:55;10.13;;;3.97;;
5157;SDS011;2598;52.364;9.772;2023-04-25T01:15:21;19.60;;;4.00;;
5157;SDS011;2598;52.364;9.772;2023-04-25T01:17:47;12.37;;;3.77;;
5157;SDS011;2598;52.364;9.772;2023-04-25T01:20:14;11.40;;;3.83;;
5157;SDS011;2598;52.364;9.772;2023-04-25T01:22:41;11.03;;;4.00;;
5157;SDS011;2598;52.364;9.772;2023-04-25T01:25:08;11.50;;;3.97;;
5157;SDS011;2598;52.364;9.772;2023-04-25T01:27:35;18.03;;;5.30;;
5157;SDS011;2598;52.364;9.772;2023-04-25T01:30:01;15.23;;;4.93;;
5157;SDS011;2598;52.364;9.772;2023-04-25T01:32:28;12.03;;;4.33;;
5157;SDS011;2598;52.364;9.772;2023-04-25T01:34:54;10.70;;;4.33;;
5157;SDS011;2598;52.364;9.772;2023-04-25T01:37:20;13.07;;;4.23;;
5157;SDS011;2598;52.364;9.772;2023-04-25T01:39:46;11.97;;;4.70;;
5157;SDS011;2598;52.364;9.772;2023-04-25T01:42:14;13.60;;;5.20;;
5157;SDS011;2598;52.364;9.772;2023-04-25T01:44:40;10.30;;;4.17;;
5157;SDS011;2598;52.364;9.772;2023-04-25T01:47:06;11.47;;;4.77;;
5157;SDS011;2598;52.364;9.772;2023-04-25T01:49:32;11.50;;;4.97;;
5157;SDS011;2598;52.364;9.772;2023-04-25T01:51:57;10.80;;;4.23;;
5157;SDS011;2598;52.364;9.772;2023-04-25T01:54:23;11.80;;;4.67;;
5157;SDS011;2598;52.364;9.772;2023-04-25T01:56:50;14.60;;;5.37;;
5157;SDS011;2598;52.364;9.772;2023-04-25T01:59:16;17.30;;;4.87;;
5157;SDS011;2598;52.364;9.772;2023-04-25T02:01:42;12.30;;;5.00;;
5157;SDS011;2598;52.364;9.772;2023-04-25T02:04:08;16.40;;;4.27;;
5157;SDS011;2598;52.364;9.772;2023-04-25T02:06:33;12.40;;;4.50;;
5157;SDS011;2598;52.364;9.772;2023-04-25T02:08:59;13.03;;;4.77;;
5157;SDS011;2598;52.364;9.772;2023-04-25T02:11:25;11.80;;;4.90;;
5157;SDS011;2598;52.364;9.772;2023-04-25T02:13:51;12.03;;;4.30;;
5157;SDS011;2598;52.364;9.772;2023-04-25T02:16:17;12.20;;;4.97;;
5157;SDS011;2598;52.364;9.772;2023-04-25T02:18:43;13.00;;;4.30;;
5157;SDS011;2598;52.364;9.772;2023-04-25T02:21:09;12.73;;;4.63;;
5157;SDS011;2598;52.364;9.772;2023-04-25T02:23:36;13.27;;;4.90;;
5157;SDS011;2598;52.364;9.772;2023-04-25T02:26:02;17.90;;;4.90;;
5157;SDS011;2598;52.364;9.772;2023-04-25T02:28:28;11.40;;;4.10;;
5157;SDS011;2598;52.364;9.772;2023-04-25T02:30:55;10.90;;;4.40;;
5157;SDS011;2598;52.364;9.772;2023-04-25T02:33:21;12.03;;;4.03;;
5157;SDS011;2598;52.364;9.772;2023-04-25T02:35:47;13.30;;;4.20;;
5157;SDS011;2598;52.364;9.772;2023-04-25T02:38:13;11.07;;;4.20;;
5157;SDS011;2598;52.364;9.772;2023-04-25T02:40:39;11.80;;;4.20;;
5157;SDS011;2598;52.364;9.772;2023-04-25T02:43:05;10.90;;;3.50;;
5157;SDS011;2598;52.364;9.772;2023-04-25T02:45:32;10.40;;;2.67;;
5157;SDS011;2598;52.364;9.772;2023-04-25T02:47:58;20.50;;;4.03;;
5157;SDS011;2598;52.364;9.772;2023-04-25T02:50:23;13.67;;;3.80;;
5157;SDS011;2598;52.364;9.772;2023-04-25T02:52:49;9.70;;;2.73;;
5157;SDS011;2598;52.364;9.772;2023-04-25T02:55:15;18.10;;;3.53;;
5157;SDS011;2598;52.364;9.772;2023-04-25T02:57:41;10.70;;;2.73;;
5157;SDS011;2598;52.364;9.772;2023-04-25T03:00:07;12.47;;;3.10;;
5157;SDS011;2598;52.364;9.772;2023-04-25T03:02:33;22.80;;;4.00;;
5157;SDS011;2598;52.364;9.772;2023-04-25T03:04:59;19.03;;;3.50;;
5157;SDS011;2598;52.364;9.772;2023-04-25T03:07:25;10.83;;;2.63;;
5157;SDS011;2598;52.364;9.772;2023-04-25T03:09:51;11.17;;;3.77;;
5157;SDS011;2598;52.364;9.772;2023-04-25T03:12:17;12.13;;;2.93;;
5157;SDS011;2598;52.364;9.772;2023-04-25T03:14:43;11.87;;;2.93;;
5157;SDS011;2598;52.364;9.772;2023-04-25T03:17:09;13.10;;;3.10;;
5157;SDS011;2598;52.364;9.772;2023-04-25T03:19:35;17.90;;;2.93;;
5157;SDS011;2598;52.364;9.772;2023-04-25T03:22:01;15.30;;;3.57;;
5157;SDS011;2598;52.364;9.772;2023-04-25T03:24:27;14.97;;;3.53;;
5157;SDS011;2598;52.364;9.772;2023-04-25T03:26:53;20.80;;;3.67;;
5157;SDS011;2598;52.364;9.772;2023-04-25T03:29:19;13.13;;;3.10;;
5157;SDS011;2598;52.364;9.772;2023-04-25T03:31:49;12.10;;;3.10;;
5157;SDS011;2598;52.364;9.772;2023-04-25T03:34:15;11.83;;;3.07;;
5157;SDS011;2598;52.364;9.772;2023-04-25T03:36:41;17.90;;;3.87;;
5157;SDS011;2598;52.364;9.772;2023-04-25T03:39:07;18.93;;;3.57;;
5157;SDS011;2598;52.364;9.772;2023-04-25T03:41:32;20.20;;;4.20;;
5157;SDS011;2598;52.364;9.772;2023-04-25T03:43:58;28.90;;;3.70;;
5157;SDS011;2598;52.364;9.772;2023-04-25T03:46:24;13.93;;;3.20;;
5157;SDS011;2598;52.364;9.772;2023-04-25T03:48:50;25.63;;;4.10;;
5157;SDS011;2598;52.364;9.772;2023-04-25T03:51:16;15.07;;;3.50;;
5157;SDS011;2598;52.364;9.772;2023-04-25T03:53:42;22.40;;;3.87;;
5157;SDS011;2598;52.364;9.772;2023-04-25T03:56:08;15.53;;;2.97;;
5157;SDS011;2598;52.364;9.772;2023-04-25T03:58:34;20.23;;;3.53;;
5157;SDS011;2598;52.364;9.772;2023-04-25T04:01:00;15.80;;;3.73;;
5157;SDS011;2598;52.364;9.772;2023-04-25T04:03:32;15.30;;;3.37;;
5157;SDS011;2598;52.364;9.772;2023-04-25T04:05:58;18.73;;;3.00;;
5157;SDS011;2598;52.364;9.772;2023-04-25T04:08:24;18.40;;;3.57;;
5157;SDS011;2598;52.364;9.772;2023-04-25T04:10:50;12.23;;;2.87;;
5157;SDS011;2598;52.364;9.772;2023-04-25T04:13:16;22.27;;;3.23;;
5157;SDS011;2598;52.364;9.772;2023-04-25T04:15:42;21.63;;;3.23;;
5157;SDS011;2598;52.364;9.772;2023-04-25T04:18:07;13.70;;;3.33;;
5157;SDS011;2598;52.364;9.772;2023-04-25T04:20:33;18.07;;;3.97;;
5157;SDS011;2598;52.364;9.772;2023-04-25T04:22:59;19.30;;;3.73;;
5157;SDS011;2598;52.364;9.772;2023-04-25T04:25:26;21.50;;;4.07;;
5157;SDS011;2598;52.364;9.772;2023-04-25T04:27:52;14.23;;;3.03;;
5157;SDS011;2598;52.364;9.772;2023-04-25T04:30:20;21.00;;;4.70;;
5157;SDS011;2598;52.364;9.772;2023-04-25T04:32:46;16.43;;;4.00;;
5157;SDS011;2598;52.364;9.772;2023-04-25T04:35:13;18.40;;;4.57;;
5157;SDS011;2598;52.364;9.772;2023-04-25T04:37:39;22.70;;;4.20;;
5157;SDS011;2598;52.364;9.772;2023-04-25T04:40:05;24.77;;;4.10;;
5157;SDS011;2598;52.364;9.772;2023-04-25T04:42:32;29.50;;;4.60;;
5157;SDS011;2598;52.364;9.772;2023-04-25T04:44:57;19.03;;;3.37;;
5157;SDS011;2598;52.364;9.772;2023-04-25T04:47:26;17.30;;;3.53;;
5157;SDS011;2598;52.364;9.772;2023-04-25T04:49:55;25.40;;;3.80;;
5157;SDS011;2598;52.364;9.772;2023-04-25T04:52:21;19.57;;;2.90;;
5157;SDS011;2598;52.364;9.772;2023-04-25T04:54:47;11.13;;;3.27;;
5157;SDS011;2598;52.364;9.772;2023-04-25T04:57:13;24.50;;;3.63;;
5157;SDS011;2598;52.364;9.772;2023-04-25T04:59:39;21.83;;;3.40;;
5157;SDS011;2598;52.364;9.772;2023-04-25T05:02:05;19.30;;;3.30;;
5157;SDS011;2598;52.364;9.772;2023-04-25T05:04:31;18.20;;;3.43;;
5157;SDS011;2598;52.364;9.772;2023-04-25T05:06:57;17.03;;;3.20;;
5157;SDS011;2598;52.364;9.772;2023-04-25T05:09:23;15.10;;;3.23;;
5157;SDS011;2598;52.364;9.772;2023-04-25T05:11:50;22.03;;;4.00;;
5157;SDS011;2598;52.364;9.772;2023-04-25T05:14:16;15.00;;;3.20;;
5157;SDS011;2598;52.364;9.772;2023-04-25T05:16:42;15.33;;;2.97;;
5157;SDS011;2598;52.364;9.772;2023-04-25T05:19:08;24.00;;;3.80;;
5157;SDS011;2598;52.364;9.772;2023-04-25T05:21:34;24.40;;;3.40;;
5157;SDS011;2598;52.364;9.772;2023-04-25T05:24:00;19.63;;;3.60;;
5157;SDS011;2598;52.364;9.772;2023-04-25T05:26:26;19.93;;;4.20;;
5157;SDS011;2598;52.364;9.772;2023-04-25T05:28:56;16.57;;;3.40;;
5157;SDS011;2598;52.364;9.772;2023-04-25T05:31:22;16.50;;;3.40;;
5157;SDS011;2598;52.364;9.772;2023-04-25T05:33:47;15.53;;;3.90;;
5157;SDS011;2598;52.364;9.772;2023-04-25T05:36:13;19.73;;;3.13;;
5157;SDS011;2598;52.364;9.772;2023-04-25T05:38:39;18.63;;;3.33;;
5157;SDS011;2598;52.364;9.772;2023-04-25T05:41:05;19.33;;;2.87;;
5157;SDS011;2598;52.364;9.772;2023-04-25T05:43:32;12.00;;;2.90;;
5157;SDS011;2598;52.364;9.772;2023-04-25T05:45:58;20.17;;;3.80;;
5157;SDS011;2598;52.364;9.772;2023-04-25T05:48:24;21.30;;;3.10;;
5157;SDS011;2598;52.364;9.772;2023-04-25T05:50:50;21.53;;;4.00;;
5157;SDS011;2598;52.364;9.772;2023-04-25T05:53:16;17.83;;;2.93;;
5157;SDS011;2598;52.364;9.772;2023-04-25T05:55:42;15.23;;;3.50;;
5157;SDS011;2598;52.364;9.772;2023-04-25T05:58:08;17.33;;;4.13;;
5157;SDS011;2598;52.364;9.772;2023-04-25T06:00:34;21.83;;;3.27;;
5157;SDS011;2598;52.364;9.772;2023-04-25T06:03:00;20.67;;;3.70;;
5157;SDS011;2598;52.364;9.772;2023-04-25T06:05:26;13.83;;;2.93;;
5157;SDS011;2598;52.364;9.772;2023-04-25T06:07:52;22.47;;;3.67;;
5157;SDS011;2598;52.364;9.772;2023-04-25T06:10:18;22.27;;;3.70;;
5157;SDS011;2598;52.364;9.772;2023-04-25T06:12:44;19.23;;;3.63;;
5157;SDS011;2598;52.364;9.772;2023-04-25T06:15:10;15.83;;;2.90;;
5157;SDS011;2598;52.364;9.772;2023-04-25T06:17:36;20.83;;;3.60;;
5157;SDS011;2598;52.364;9.772;2023-04-25T06:20:02;22.93;;;3.70;;
5157;SDS011;2598;52.364;9.772;2023-04-25T06:22:28;13.40;;;3.10;;
5157;SDS011;2598;52.364;9.772;2023-04-25T06:24:54;17.53;;;3.37;;
5157;SDS011;2598;52.364;9.772;2023-04-25T06:27:23;18.80;;;3.07;;
5157;SDS011;2598;52.364;9.772;2023-04-25T06:29:49;14.23;;;3.03;;
5157;SDS011;2598;52.364;9.772;2023-04-25T06:32:15;22.30;;;3.27;;
5157;SDS011;2598;52.364;9.772;2023-04-25T06:34:43;16.40;;;3.53;;
5157;SDS011;2598;52.364;9.772;2023-04-25T06:37:09;18.40;;;3.10;;
5157;SDS011;2598;52.364;9.772;2023-04-25T06:39:34;19.60;;;3.37;;
5157;SDS011;2598;52.364;9.772;2023-04-25T06:42:01;14.60;;;3.20;;
5157;SDS011;2598;52.364;9.772;2023-04-25T06:44:27;15.77;;;3.20;;
5157;SDS011;2598;52.364;9.772;2023-04-25T06:46:54;17.80;;;3.23;;
5157;SDS011;2598;52.364;9.772;2023-04-25T06:49:20;11.00;;;2.83;;
5157;SDS011;2598;52.364;9.772;2023-04-25T06:51:46;14.93;;;3.40;;
5157;SDS011;2598;52.364;9.772;2023-04-25T06:54:12;26.90;;;3.40;;
5157;SDS011;2598;52.364;9.772;2023-04-25T06:56:38;14.90;;;3.40;;
5157;SDS011;2598;52.364;9.772;2023-04-25T06:59:04;17.57;;;2.60;;
5157;SDS011;2598;52.364;9.772;2023-04-25T07:01:30;16.50;;;3.47;;
5157;SDS011;2598;52.364;9.772;2023-04-25T07:03:56;15.00;;;3.87;;
5157;SDS011;2598;52.364;9.772;2023-04-25T07:06:22;17.77;;;2.67;;
5157;SDS011;2598;52.364;9.772;2023-04-25T07:08:48;16.03;;;3.50;;
5157;SDS011;2598;52.364;9.772;2023-04-25T07:11:14;17.07;;;3.43;;
5157;SDS011;2598;52.364;9.772;2023-04-25T07:13:40;16.30;;;3.27;;
5157;SDS011;2598;52.364;9.772;2023-04-25T07:16:06;15.87;;;2.83;;
5157;SDS011;2598;52.364;9.772;2023-04-25T07:18:32;14.60;;;2.97;;
5157;SDS011;2598;52.364;9.772;2023-04-25T07:20:57;11.37;;;2.80;;
5157;SDS011;2598;52.364;9.772;2023-04-25T07:23:23;15.83;;;2.97;;
5157;SDS011;2598;52.364;9.772;2023-04-25T07:25:49;26.33;;;2.87;;
5157;SDS011;2598;52.364;9.772;2023-04-25T07:28:15;15.50;;;2.97;;
5157;SDS011;2598;52.364;9.772;2023-04-25T07:30:42;14.20;;;3.40;;
5157;SDS011;2598;52.364;9.772;2023-04-25T07:33:08;11.77;;;2.50;;
5157;SDS011;2598;52.364;9.772;2023-04-25T07:35:34;10.70;;;2.87;;
5157;SDS011;2598;52.364;9.772;2023-04-25T07:38:01;23.40;;;3.63;;
5157;SDS011;2598;52.364;9.772;2023-04-25T07:40:27;17.43;;;2.50;;
5157;SDS011;2598;52.364;9.772;2023-04-25T07:42:53;14.60;;;2.60;;
5157;SDS011;2598;52.364;9.772;2023-04-25T07:45:19;12.20;;;2.90;;
5157;SDS011;2598;52.364;9.772;2023-04-25T07:47:45;12.57;;;3.00;;
5157;SDS011;2598;52.364;9.772;2023-04-25T07:50:11;12.80;;;2.73;;
5157;SDS011;2598;52.364;9.772;2023-04-25T07:52:37;16.07;;;2.97;;
5157;SDS011;2598;52.364;9.772;2023-04-25T07:55:03;11.80;;;2.67;;
5157;SDS011;2598;52.364;9.772;2023-04-25T07:57:29;17.53;;;2.57;;
5157;SDS011;2598;52.364;9.772;2023-04-25T07:59:55;16.17;;;2.43;;
5157;SDS011;2598;52.364;9.772;2023-04-25T08:02:21;11.27;;;2.17;;
5157;SDS011;2598;52.364;9.772;2023-04-25T08:04:47;14.07;;;2.70;;
5157;SDS011;2598;52.364;9.772;2023-04-25T08:07:14;14.50;;;3.03;;
5157;SDS011;2598;52.364;9.772;2023-04-25T08:09:40;13.20;;;2.40;;
5157;SDS011;2598;52.364;9.772;2023-04-25T08:12:06;13.10;;;2.10;;
5157;SDS011;2598;52.364;9.772;2023-04-25T08:14:32;9.67;;;2.20;;
5157;SDS011;2598;52.364;9.772;2023-04-25T08:17:01;17.90;;;2.57;;
5157;SDS011;2598;52.364;9.772;2023-04-25T08:19:28;10.83;;;2.37;;
5157;SDS011;2598;52.364;9.772;2023-04-25T08:21:54;14.03;;;2.90;;
5157;SDS011;2598;52.364;9.772;2023-04-25T08:24:21;16.13;;;2.63;;
5157;SDS011;2598;52.364;9.772;2023-04-25T08:26:47;11.10;;;2.40;;
5157;SDS011;2598;52.364;9.772;2023-04-25T08:29:13;11.93;;;2.30;;
5157;SDS011;2598;52.364;9.772;2023-04-25T08:31:39;13.73;;;2.50;;
5157;SDS011;2598;52.364;9.772;2023-04-25T08:34:05;12.03;;;1.97;;
5157;SDS011;2598;52.364;9.772;2023-04-25T08:36:31;12.47;;;2.60;;
5157;SDS011;2598;52.364;9.772;2023-04-25T08:38:58;12.37;;;1.83;;
5157;SDS011;2598;52.364;9.772;2023-04-25T08:41:24;15.70;;;2.90;;
5157;SDS011;2598;52.364;9.772;2023-04-25T08:43:50;9.77;;;2.30;;
5157;SDS011;2598;52.364;9.772;2023-04-25T08:46:18;12.30;;;2.23;;
5157;SDS011;2598;52.364;9.772;2023-04-25T08:48:44;9.60;;;2.20;;
5157;SDS011;2598;52.364;9.772;2023-04-25T08:51:10;16.90;;;2.37;;
5157;SDS011;2598;52.364;9.772;2023-04-25T08:53:41;8.30;;;2.10;;
5157;SDS011;2598;52.364;9.772;2023-04-25T08:56:07;5.93;;;1.73;;
5157;SDS011;2598;52.364;9.772;2023-04-25T08:58:34;7.90;;;2.10;;
5157;SDS011;2598;52.364;9.772;2023-04-25T09:01:01;8.40;;;2.03;;
5157;SDS011;2598;52.364;9.772;2023-04-25T09:03:27;6.90;;;1.50;;
5157;SDS011;2598;52.364;9.772;2023-04-25T09:05:53;9.87;;;2.30;;
5157;SDS011;2598;52.364;9.772;2023-04-25T09:08:19;10.83;;;2.03;;
5157;SDS011;2598;52.364;9.772;2023-04-25T09:10:45;14.93;;;2.30;;
5157;SDS011;2598;52.364;9.772;2023-04-25T09:13:14;13.73;;;2.20;;
5157;SDS011;2598;52.364;9.772;2023-04-25T09:15:47;12.70;;;2.10;;
5157;SDS011;2598;52.364;9.772;2023-04-25T09:18:13;9.33;;;2.10;;
5157;SDS011;2598;52.364;9.772;2023-04-25T09:20:47;9.97;;;2.00;;
5157;SDS011;2598;52.364;9.772;2023-04-25T09:23:14;9.50;;;1.73;;
5157;SDS011;2598;52.364;9.772;2023-04-25T09:25:40;7.50;;;2.43;;
5157;SDS011;2598;52.364;9.772;2023-04-25T09:28:08;10.57;;;1.73;;
5157;SDS011;2598;52.364;9.772;2023-04-25T09:30:35;6.20;;;1.53;;
5157;SDS011;2598;52.364;9.772;2023-04-25T09:33:04;9.67;;;1.73;;
5157;SDS011;2598;52.364;9.772;2023-04-25T09:35:35;5.03;;;1.30;;
5157;SDS011;2598;52.364;9.772;2023-04-25T09:38:06;6.47;;;1.50;;
5157;SDS011;2598;52.364;9.772;2023-04-25T09:40:32;6.50;;;1.40;;
5157;SDS011;2598;52.364;9.772;2023-04-25T09:42:58;9.17;;;1.27;;
5157;SDS011;2598;52.364;9.772;2023-04-25T09:45:24;7.60;;;1.47;;
5157;SDS011;2598;52.364;9.772;2023-04-25T09:47:50;8.70;;;1.83;;
5157;SDS011;2598;52.364;9.772;2023-04-25T09:50:17;5.47;;;1.20;;
5157;SDS011;2598;52.364;9.772;2023-04-25T09:52:44;5.70;;;1.30;;
5157;SDS011;2598;52.364;9.772;2023-04-25T09:55:10;6.57;;;1.30;;
5157;SDS011;2598;52.364;9.772;2023-04-25T09:57:36;8.10;;;1.60;;
5157;SDS011;2598;52.364;9.772;2023-04-25T10:00:05;8.20;;;1.83;;
5157;SDS011;2598;52.364;9.772;2023-04-25T10:02:36;7.43;;;1.80;;
5157;SDS011;2598;52.364;9.772;2023-04-25T10:05:05;5.67;;;1.17;;
5157;SDS011;2598;52.364;9.772;2023-04-25T10:07:31;9.53;;;1.60;;
5157;SDS011;2598;52.364;9.772;2023-04-25T10:10:00;5.87;;;1.30;;
5157;SDS011;2598;52.364;9.772;2023-04-25T10:12:29;11.13;;;1.93;;
5157;SDS011;2598;52.364;9.772;2023-04-25T10:14:58;7.07;;;1.80;;
5157;SDS011;2598;52.364;9.772;2023-04-25T10:17:25;6.68;;;1.77;;
5157;SDS011;2598;52.364;9.772;2023-04-25T10:19:52;10.80;;;2.17;;
5157;SDS011;2598;52.364;9.772;2023-04-25T10:22:35;6.33;;;1.30;;
5157;SDS011;2598;52.364;9.772;2023-04-25T10:25:02;5.67;;;1.43;;
5157;SDS011;2598;52.364;9.772;2023-04-25T10:27:29;10.93;;;1.80;;
5157;SDS011;2598;52.364;9.772;2023-04-25T10:30:06;6.87;;;1.70;;
5157;SDS011;2598;52.364;9.772;2023-04-25T10:32:35;10.07;;;1.73;;
5157;SDS011;2598;52.364;9.772;2023-04-25T10:35:23;7.00;;;1.40;;
5157;SDS011;2598;52.364;9.772;2023-04-25T10:37:56;6.53;;;2.03;;
5157;SDS011;2598;52.364;9.772;2023-04-25T10:40:22;7.95;;;1.90;;
5157;SDS011;2598;52.364;9.772;2023-04-25T10:42:48;6.93;;;1.93;;
5157;SDS011;2598;52.364;9.772;2023-04-25T10:45:14;9.80;;;2.03;;
5157;SDS011;2598;52.364;9.772;2023-04-25T10:47:43;10.20;;;1.90;;
5157;SDS011;2598;52.364;9.772;2023-04-25T10:50:10;8.60;;;2.03;;
5157;SDS011;2598;52.364;9.772;2023-04-25T10:52:38;9.13;;;2.10;;
5157;SDS011;2598;52.364;9.772;2023-04-25T10:55:05;10.50;;;2.67;;
5157;SDS011;2598;52.364;9.772;2023-04-25T10:57:41;6.57;;;2.00;;
5157;SDS011;2598;52.364;9.772;2023-04-25T11:02:38;6.57;;;1.87;;
5157;SDS011;2598;52.364;9.772;2023-04-25T11:05:06;6.03;;;1.43;;
5157;SDS011;2598;52.364;9.772;2023-04-25T11:07:53;5.40;;;1.40;;
5157;SDS011;2598;52.364;9.772;2023-04-25T11:10:19;6.20;;;1.97;;
5157;SDS011;2598;52.364;9.772;2023-04-25T11:12:46;6.70;;;1.60;;
5157;SDS011;2598;52.364;9.772;2023-04-25T11:15:12;6.30;;;1.23;;
5157;SDS011;2598;52.364;9.772;2023-04-25T11:17:38;7.17;;;1.53;;
5157;SDS011;2598;52.364;9.772;2023-04-25T11:20:07;8.43;;;1.47;;
5157;SDS011;2598;52.364;9.772;2023-04-25T11:22:36;10.70;;;1.97;;
5157;SDS011;2598;52.364;9.772;2023-04-25T11:25:06;11.00;;;1.83;;
5157;SDS011;2598;52.364;9.772;2023-04-25T11:27:32;11.27;;;2.37;;
5157;SDS011;2598;52.364;9.772;2023-04-25T11:30:09;7.40;;;1.73;;
5157;SDS011;2598;52.364;9.772;2023-04-25T11:32:35;10.23;;;2.27;;
5157;SDS011;2598;52.364;9.772;2023-04-25T11:35:01;9.03;;;1.90;;
5157;SDS011;2598;52.364;9.772;2023-04-25T11:37:27;6.97;;;1.63;;
5157;SDS011;2598;52.364;9.772;2023-04-25T11:39:53;7.47;;;1.67;;
5157;SDS011;2598;52.364;9.772;2023-04-25T11:42:19;12.20;;;2.40;;
5157;SDS011;2598;52.364;9.772;2023-04-25T11:44:45;16.63;;;1.57;;
5157;SDS011;2598;52.364;9.772;2023-04-25T11:47:11;7.80;;;1.67;;
5157;SDS011;2598;52.364;9.772;2023-04-25T11:49:37;10.70;;;2.07;;
5157;SDS011;2598;52.364;9.772;2023-04-25T11:52:05;16.13;;;1.70;;
5157;SDS011;2598;52.364;9.772;2023-04-25T11:54:34;5.80;;;1.57;;
5157;SDS011;2598;52.364;9.772;2023-04-25T11:57:00;6.90;;;1.80;;
5157;SDS011;2598;52.364;9.772;2023-04-25T11:59:26;9.50;;;2.10;;
5157;SDS011;2598;52.364;9.772;2023-04-25T12:01:52;7.63;;;1.37;;
5157;SDS011;2598;52.364;9.772;2023-04-25T12:04:20;7.97;;;1.40;;
5157;SDS011;2598;52.364;9.772;2023-04-25T12:06:48;7.70;;;1.60;;
5157;SDS011;2598;52.364;9.772;2023-04-25T12:09:15;8.80;;;1.90;;
5157;SDS011;2598;52.364;9.772;2023-04-25T12:11:46;10.00;;;1.60;;
5157;SDS011;2598;52.364;9.772;2023-04-25T12:14:19;7.83;;;1.73;;
5157;SDS011;2598;52.364;9.772;2023-04-25T12:16:46;10.63;;;1.70;;
5157;SDS011;2598;52.364;9.772;2023-04-25T12:19:16;10.73;;;1.77;;
5157;SDS011;2598;52.364;9.772;2023-04-25T12:21:42;7.37;;;1.63;;
5157;SDS011;2598;52.364;9.772;2023-04-25T12:24:18;5.70;;;1.37;;
5157;SDS011;2598;52.364;9.772;2023-04-25T12:26:51;9.63;;;1.93;;
5157;SDS011;2598;52.364;9.772;2023-04-25T12:29:20;3.93;;;1.00;;
5157;SDS011;2598;52.364;9.772;2023-04-25T12:31:47;4.03;;;1.20;;
5157;SDS011;2598;52.364;9.772;2023-04-25T12:34:13;4.70;;;1.27;;
5157;SDS011;2598;52.364;9.772;2023-04-25T12:36:39;5.33;;;1.20;;
5157;SDS011;2598;52.364;9.772;2023-04-25T12:39:05;5.37;;;1.13;;
5157;SDS011;2598;52.364;9.772;2023-04-25T12:41:32;10.43;;;1.70;;
5157;SDS011;2598;52.364;9.772;2023-04-25T12:43:58;9.97;;;1.53;;
5157;SDS011;2598;52.364;9.772;2023-04-25T12:46:24;6.17;;;1.17;;
5157;SDS011;2598;52.364;9.772;2023-04-25T12:48:50;4.73;;;1.13;;
5157;SDS011;2598;52.364;9.772;2023-04-25T12:51:16;5.40;;;1.30;;
5157;SDS011;2598;52.364;9.772;2023-04-25T12:53:42;8.23;;;1.30;;
5157;SDS011;2598;52.364;9.772;2023-04-25T12:56:08;4.67;;;0.90;;
5157;SDS011;2598;52.364;9.772;2023-04-25T12:58:34;3.77;;;0.83;;
5157;SDS011;2598;52.364;9.772;2023-04-25T13:01:00;6.07;;;1.00;;
5157;SDS011;2598;52.364;9.772;2023-04-25T13:03:26;6.03;;;1.10;;
5157;SDS011;2598;52.364;9.772;2023-04-25T13:05:52;3.87;;;1.00;;
5157;SDS011;2598;52.364;9.772;2023-04-25T13:08:19;4.50;;;0.93;;
5157;SDS011;2598;52.364;9.772;2023-04-25T13:10:45;4.93;;;1.40;;
5157;SDS011;2598;52.364;9.772;2023-04-25T13:13:11;4.90;;;0.80;;
5157;SDS011;2598;52.364;9.772;2023-04-25T13:15:37;5.87;;;1.00;;
5157;SDS011;2598;52.364;9.772;2023-04-25T13:18:03;5.90;;;1.00;;
5157;SDS011;2598;52.364;9.772;2023-04-25T13:20:30;6.63;;;1.13;;
5157;SDS011;2598;52.364;9.772;2023-04-25T13:22:56;7.43;;;1.03;;
5157;SDS011;2598;52.364;9.772;2023-04-25T13:25:22;5.93;;;1.10;;
5157;SDS011;2598;52.364;9.772;2023-04-25T13:27:48;9.13;;;1.63;;
5157;SDS011;2598;52.364;9.772;2023-04-25T13:30:14;6.87;;;1.17;;
5157;SDS011;2598;52.364;9.772;2023-04-25T13:32:40;5.93;;;1.40;;
5157;SDS011;2598;52.364;9.772;2023-04-25T13:35:08;5.30;;;1.30;;
5157;SDS011;2598;52.364;9.772;2023-04-25T13:37:34;9.60;;;1.50;;
5157;SDS011;2598;52.364;9.772;2023-04-25T13:40:00;4.33;;;1.30;;
5157;SDS011;2598;52.364;9.772;2023-04-25T13:42:28;9.10;;;1.70;;
5157;SDS011;2598;52.364;9.772;2023-04-25T13:44:55;4.50;;;1.17;;
5157;SDS011;2598;52.364;9.772;2023-04-25T13:47:21;6.13;;;1.37;;
5157;SDS011;2598;52.364;9.772;2023-04-25T13:49:47;7.47;;;1.47;;
5157;SDS011;2598;52.364;9.772;2023-04-25T13:52:13;9.40;;;1.73;;
5157;SDS011;2598;52.364;9.772;2023-04-25T13:54:39;5.90;;;1.67;;
5157;SDS011;2598;52.364;9.772;2023-04-25T13:57:05;4.87;;;1.33;;
5157;SDS011;2598;52.364;9.772;2023-04-25T13:59:31;5.90;;;1.30;;
5157;SDS011;2598;52.364;9.772;2023-04-25T14:01:57;8.43;;;1.97;;
5157;SDS011;2598;52.364;9.772;2023-04-25T14:04:24;5.43;;;1.40;;
5157;SDS011;2598;52.364;9.772;2023-04-25T14:06:50;6.73;;;1.40;;
5157;SDS011;2598;52.364;9.772;2023-04-25T14:09:16;10.37;;;1.20;;
5157;SDS011;2598;52.364;9.772;2023-04-25T14:11:42;4.87;;;1.27;;
5157;SDS011;2598;52.364;9.772;2023-04-25T14:14:08;6.13;;;1.30;;
5157;SDS011;2598;52.364;9.772;2023-04-25T14:16:34;5.77;;;1.03;;
5157;SDS011;2598;52.364;9.772;2023-04-25T14:19:00;10.67;;;4.70;;
5157;SDS011;2598;52.364;9.772;2023-04-25T14:21:27;9.20;;;3.97;;
5157;SDS011;2598;52.364;9.772;2023-04-25T14:23:53;8.20;;;1.70;;
5157;SDS011;2598;52.364;9.772;2023-04-25T14:26:19;5.10;;;1.63;;
5157;SDS011;2598;52.364;9.772;2023-04-25T14:28:45;7.73;;;2.10;;
5157;SDS011;2598;52.364;9.772;2023-04-25T14:31:11;8.90;;;2.13;;
5157;SDS011;2598;52.364;9.772;2023-04-25T14:33:37;7.67;;;1.40;;
5157;SDS011;2598;52.364;9.772;2023-04-25T14:36:06;6.80;;;1.67;;
5157;SDS011;2598;52.364;9.772;2023-04-25T14:38:32;6.10;;;1.43;;
5157;SDS011;2598;52.364;9.772;2023-04-25T14:40:58;5.50;;;1.50;;
5157;SDS011;2598;52.364;9.772;2023-04-25T14:43:24;6.27;;;1.67;;
5157;SDS011;2598;52.364;9.772;2023-04-25T14:45:50;10.20;;;1.70;;
5157;SDS011;2598;52.364;9.772;2023-04-25T14:48:17;8.97;;;1.70;;
5157;SDS011;2598;52.364;9.772;2023-04-25T14:50:44;6.20;;;1.60;;
5157;SDS011;2598;52.364;9.772;2023-04-25T14:53:10;6.07;;;1.57;;
5157;SDS011;2598;52.364;9.772;2023-04-25T14:55:36;7.30;;;1.23;;
5157;SDS011;2598;52.364;9.772;2023-04-25T14:58:02;7.97;;;1.50;;
5157;SDS011;2598;52.364;9.772;2023-04-25T15:00:28;5.03;;;1.30;;
5157;SDS011;2598;52.364;9.772;2023-04-25T15:02:56;7.10;;;1.88;;
5157;SDS011;2598;52.364;9.772;2023-04-25T15:05:22;7.10;;;1.50;;